createdAt,value
2019-05-23T00:01:25.231Z,62.50
2019-05-23T00:03:53.260Z,62.60
2019-05-23T00:06:23.773Z,63.60
2019-05-23T00:08:52.796Z,62.90
2019-05-23T00:11:29.368Z,63.20
2019-05-23T00:13:59.661Z,63.20
2019-05-23T00:16:27.641Z,63.10
2019-05-23T00:18:57.612Z,61.70
2019-05-23T00:21:26.733Z,62.20
2019-05-23T00:23:55.814Z,62.00
2019-05-23T00:26:24.544Z,61.40
2019-05-23T00:29:09.002Z,60.90
2019-05-23T00:31:32.986Z,60.20
2019-05-23T00:34:02.044Z,60.10
2019-05-23T00:36:31.549Z,60.40
2019-05-23T00:39:00.410Z,60.50
2019-05-23T00:41:29.736Z,60.20
2019-05-23T00:43:58.774Z,60.00
2019-05-23T00:46:28.069Z,60.80
2019-05-23T00:48:56.894Z,60.20
2019-05-23T00:51:26.156Z,60.80
2019-05-23T00:53:55.079Z,60.80
2019-05-23T00:56:25.035Z,60.30
2019-05-23T00:58:54.518Z,60.70
2019-05-23T01:01:24.022Z,61.20
2019-05-23T01:03:53.148Z,61.10
2019-05-23T01:06:22.742Z,60.60
2019-05-23T01:08:53.308Z,60.70
2019-05-23T01:11:22.039Z,60.40
2019-05-23T01:13:51.039Z,60.30
2019-05-23T01:16:21.700Z,60.90
2019-05-23T01:18:49.975Z,60.20
2019-05-23T01:21:36.432Z,60.90
2019-05-23T01:24:23.282Z,61.00
2019-05-23T01:26:53.646Z,61.60
2019-05-23T01:29:22.509Z,61.50
2019-05-23T01:31:52.882Z,61.20
2019-05-23T01:34:22.225Z,60.40
2019-05-23T01:36:51.377Z,61.10
2019-05-23T01:39:20.776Z,61.00
2019-05-23T01:41:49.502Z,61.70
2019-05-23T01:44:18.811Z,61.30
2019-05-23T01:46:47.530Z,61.30
2019-05-23T01:49:16.268Z,61.70
2019-05-23T01:51:45.315Z,61.80
2019-05-23T01:54:14.037Z,62.20
2019-05-23T01:56:43.482Z,61.00
2019-05-23T01:59:13.521Z,61.20
2019-05-23T02:01:42.311Z,61.90
2019-05-23T02:04:11.115Z,61.10
2019-05-23T02:06:40.036Z,62.60
2019-05-23T02:09:09.579Z,62.80
2019-05-23T02:11:39.247Z,62.40
2019-05-23T02:14:08.189Z,60.90
2019-05-23T02:16:37.528Z,61.50
2019-05-23T02:19:06.278Z,63.10
2019-05-23T02:21:36.110Z,61.70
2019-05-23T02:24:05.549Z,59.00
2019-05-23T02:26:37.183Z,59.80
2019-05-23T02:29:06.520Z,59.70
2019-05-23T02:31:35.319Z,59.30
2019-05-23T02:34:04.354Z,59.70
2019-05-23T02:36:34.604Z,59.50
2019-05-23T02:39:04.938Z,59.00
2019-05-23T02:41:38.146Z,60.60
2019-05-23T02:44:20.068Z,58.70
2019-05-23T02:46:50.363Z,59.60
2019-05-23T02:49:20.677Z,58.80
2019-05-23T02:51:50.182Z,59.60
2019-05-23T02:54:20.238Z,60.70
2019-05-23T02:56:50.057Z,60.60
2019-05-23T02:59:38.019Z,61.30
2019-05-23T03:02:27.850Z,60.70
2019-05-23T03:04:57.080Z,59.40
2019-05-23T03:07:27.892Z,59.70
2019-05-23T03:09:56.615Z,60.70
2019-05-23T03:12:26.943Z,60.60
2019-05-23T03:14:57.092Z,59.00
2019-05-23T03:17:27.324Z,58.80
2019-05-23T03:19:59.922Z,59.50
2019-05-23T03:22:58.937Z,58.60
2019-05-23T03:25:39.842Z,58.90
2019-05-23T03:28:09.854Z,59.40
2019-05-23T03:30:40.360Z,59.20
2019-05-23T03:33:10.696Z,59.40
2019-05-23T03:35:50.155Z,59.00
2019-05-23T03:38:19.294Z,59.20
2019-05-23T03:40:48.054Z,58.90
2019-05-23T03:43:16.888Z,59.10
2019-05-23T03:45:47.256Z,59.50
2019-05-23T03:48:16.080Z,59.10
2019-05-23T03:50:46.379Z,57.30
2019-05-23T03:53:15.200Z,56.70
2019-05-23T03:55:45.545Z,56.70
2019-05-23T03:58:14.579Z,57.20
2019-05-23T04:00:45.247Z,56.50
2019-05-23T04:03:13.240Z,58.30
2019-05-23T04:05:42.968Z,57.90
2019-05-23T04:08:12.552Z,58.20
2019-05-23T04:10:41.376Z,58.00
2019-05-23T04:13:10.690Z,58.10
2019-05-23T04:15:39.561Z,59.10
2019-05-23T04:18:08.292Z,59.20
2019-05-23T04:20:37.070Z,58.60
2019-05-23T04:23:06.027Z,58.50
2019-05-23T04:25:34.725Z,59.00
2019-05-23T04:28:03.463Z,59.20
2019-05-23T04:30:32.251Z,58.60
2019-05-23T04:33:00.967Z,59.60
2019-05-23T04:35:29.846Z,59.10
2019-05-23T04:37:59.038Z,58.10
2019-05-23T04:40:28.279Z,59.00
2019-05-23T04:42:57.153Z,58.70
2019-05-23T04:45:25.928Z,57.50
2019-05-23T04:47:54.878Z,58.00
2019-05-23T04:50:23.994Z,58.70
2019-05-23T04:52:53.822Z,59.10
2019-05-23T04:55:22.512Z,59.90
2019-05-23T04:57:52.333Z,58.50
2019-05-23T05:00:22.636Z,59.70
2019-05-23T05:02:51.335Z,58.50
2019-05-23T05:05:20.810Z,58.30
2019-05-23T05:07:49.518Z,58.10
2019-05-23T05:10:20.689Z,57.40
2019-05-23T05:12:49.466Z,58.00
2019-05-23T05:15:18.169Z,57.90
2019-05-23T05:17:46.932Z,55.60
2019-05-23T05:20:15.654Z,56.70
2019-05-23T05:22:44.433Z,59.40
2019-05-23T05:25:13.592Z,57.90
2019-05-23T05:27:42.420Z,54.70
2019-05-23T05:30:11.125Z,53.50
2019-05-23T05:32:44.537Z,56.10
2019-05-23T05:35:10.404Z,56.20
2019-05-23T05:37:39.216Z,56.40
2019-05-23T05:40:08.326Z,56.20
2019-05-23T05:42:38.091Z,58.00
2019-05-23T05:45:08.226Z,56.30
2019-05-23T05:47:37.407Z,54.70
2019-05-23T05:50:07.893Z,53.60
2019-05-23T05:52:37.764Z,53.10
2019-05-23T05:55:08.187Z,55.10
2019-05-23T05:57:37.129Z,54.80
2019-05-23T06:00:12.641Z,54.50
2019-05-23T06:02:39.204Z,54.00
2019-05-23T06:05:09.598Z,54.10
2019-05-23T06:07:40.000Z,53.20
2019-05-23T06:10:10.509Z,54.00
2019-05-23T06:12:39.314Z,56.00
2019-05-23T06:15:08.634Z,52.60
2019-05-23T06:17:37.769Z,56.80
2019-05-23T06:20:06.878Z,58.90
2019-05-23T06:22:35.690Z,59.10
2019-05-23T06:25:06.296Z,59.40
2019-05-23T06:27:34.291Z,59.40
2019-05-23T06:30:03.562Z,62.70
2019-05-23T06:32:32.673Z,62.80
2019-05-23T06:35:01.399Z,64.70
2019-05-23T06:37:34.213Z,63.30
2019-05-23T06:40:02.255Z,64.70
2019-05-23T06:42:30.992Z,59.80
2019-05-23T06:44:59.986Z,69.60
2019-05-23T06:47:28.686Z,70.00
2019-05-23T06:49:57.486Z,64.40
2019-05-23T06:52:26.205Z,64.20
2019-05-23T06:54:54.970Z,67.20
2019-05-23T06:57:24.408Z,67.10
2019-05-23T06:59:53.136Z,65.00
2019-05-23T07:02:22.255Z,60.90
2019-05-23T07:04:51.006Z,61.90
2019-05-23T07:07:20.019Z,61.60
2019-05-23T07:09:48.735Z,62.20
2019-05-23T07:12:17.644Z,65.60
2019-05-23T07:14:46.364Z,64.60
2019-05-23T07:17:15.796Z,63.50
2019-05-23T07:19:44.616Z,68.10
2019-05-23T07:22:13.349Z,67.00
2019-05-23T07:24:56.825Z,60.00
2019-05-23T07:27:12.941Z,58.80
2019-05-23T07:29:41.760Z,60.70
2019-05-23T07:32:10.741Z,65.30
2019-05-23T07:34:39.476Z,56.00
2019-05-23T07:37:08.218Z,56.10
2019-05-23T07:39:37.037Z,57.70
2019-05-23T07:42:06.317Z,54.30
2019-05-23T07:44:47.881Z,53.50
2019-05-23T07:47:07.426Z,53.80
2019-05-23T07:49:36.128Z,51.70
2019-05-23T07:52:04.871Z,50.20
2019-05-23T07:54:35.471Z,50.20
2019-05-23T07:57:05.045Z,47.10
2019-05-23T07:59:34.465Z,49.60
2019-05-23T08:02:07.966Z,47.50
2019-05-23T08:04:36.720Z,46.80
2019-05-23T08:07:06.424Z,46.70
2019-05-23T08:09:35.217Z,45.90
2019-05-23T08:12:04.021Z,48.30
2019-05-23T08:14:33.250Z,48.20
2019-05-23T08:17:02.030Z,47.60
2019-05-23T08:19:30.745Z,46.80
2019-05-23T08:21:59.544Z,47.20
2019-05-23T08:24:28.435Z,46.40
2019-05-23T08:26:58.115Z,46.10
2019-05-23T08:29:27.144Z,47.10
2019-05-23T08:31:55.974Z,45.50
2019-05-23T08:34:39.850Z,45.00
2019-05-23T08:36:55.665Z,43.30
2019-05-23T08:39:25.380Z,42.40
2019-05-23T08:41:54.240Z,44.00
2019-05-23T08:44:23.240Z,41.10
2019-05-23T08:46:51.991Z,42.70
2019-05-23T08:49:21.097Z,41.60
2019-05-23T08:51:50.112Z,41.60
2019-05-23T08:54:18.875Z,39.20
2019-05-23T08:56:50.751Z,39.50
2019-05-23T08:59:19.466Z,39.90
2019-05-23T09:01:48.205Z,40.20
2019-05-23T09:04:16.904Z,39.70
2019-05-23T09:06:45.628Z,39.30
2019-05-23T09:09:29.312Z,41.40
2019-05-23T09:11:46.065Z,40.20
2019-05-23T09:14:15.228Z,39.50
2019-05-23T09:16:44.059Z,40.70
2019-05-23T09:19:12.793Z,41.70
2019-05-23T09:21:41.619Z,41.50
2019-05-23T09:24:11.046Z,41.10
2019-05-23T09:26:39.854Z,40.70
2019-05-23T09:29:09.259Z,40.40
2019-05-23T09:31:38.254Z,41.50
2019-05-23T09:34:06.993Z,40.40
2019-05-23T09:36:35.711Z,41.20
2019-05-23T09:39:07.881Z,41.90
2019-05-23T09:41:37.121Z,41.30
2019-05-23T09:44:06.565Z,42.20
2019-05-23T09:46:35.285Z,40.50
2019-05-23T09:49:04.010Z,41.40
2019-05-23T09:51:32.740Z,42.80
2019-05-23T09:54:01.509Z,41.40
2019-05-23T09:56:30.423Z,41.80
2019-05-23T09:58:59.175Z,42.00
2019-05-23T10:01:28.073Z,40.40
2019-05-23T10:03:56.837Z,41.40
2019-05-23T10:06:25.579Z,41.90
2019-05-23T10:08:54.416Z,42.50
2019-05-23T10:11:23.115Z,42.70
2019-05-23T10:13:51.857Z,41.70
2019-05-23T10:16:20.581Z,39.70
2019-05-23T10:18:49.301Z,41.40
2019-05-23T10:21:18.044Z,41.90
2019-05-23T10:23:46.784Z,41.10
2019-05-23T10:26:15.858Z,41.70
2019-05-23T10:28:44.631Z,39.70
2019-05-23T10:31:14.486Z,39.80
2019-05-23T10:33:43.182Z,40.60
2019-05-23T10:36:11.904Z,40.20
2019-05-23T10:38:40.641Z,39.50
2019-05-23T10:41:09.367Z,41.00
2019-05-23T10:43:38.096Z,41.40
2019-05-23T10:46:06.885Z,43.10
2019-05-23T10:48:36.001Z,41.00
2019-05-23T10:51:05.655Z,41.30
2019-05-23T10:53:34.368Z,41.60
2019-05-23T10:56:03.130Z,39.90
2019-05-23T10:58:32.218Z,40.50
2019-05-23T11:01:00.953Z,41.20
2019-05-23T11:03:31.055Z,41.50
2019-05-23T11:06:13.322Z,40.30
2019-05-23T11:08:30.679Z,42.40
2019-05-23T11:10:59.811Z,41.00
2019-05-23T11:13:28.872Z,42.10
2019-05-23T11:15:57.703Z,41.40
2019-05-23T11:18:26.404Z,39.80
2019-05-23T11:20:55.130Z,39.90
2019-05-23T11:23:25.695Z,40.20
2019-05-23T11:25:53.678Z,41.30
2019-05-23T11:28:23.299Z,41.40
2019-05-23T11:30:53.595Z,40.20
2019-05-23T11:33:22.921Z,41.20
2019-05-23T11:35:51.772Z,39.80
2019-05-23T11:38:20.602Z,40.30
2019-05-23T11:40:49.520Z,41.50
2019-05-23T11:43:18.321Z,40.50
2019-05-23T11:45:48.620Z,41.90
2019-05-23T11:48:17.480Z,41.20
2019-05-23T11:50:46.216Z,41.40
2019-05-23T11:53:15.053Z,43.70
2019-05-23T11:55:43.843Z,41.20
2019-05-23T11:58:13.146Z,40.40
2019-05-23T12:00:56.000Z,40.70
2019-05-23T12:03:24.953Z,41.10
2019-05-23T12:05:53.745Z,40.50
2019-05-23T12:08:22.599Z,40.90
2019-05-23T12:10:51.334Z,40.10
2019-05-23T12:13:20.076Z,38.50
2019-05-23T12:15:48.893Z,39.70
2019-05-23T12:18:17.766Z,39.80
2019-05-23T12:20:46.468Z,41.50
2019-05-23T12:23:15.202Z,38.60
2019-05-23T12:25:43.882Z,41.00
2019-05-23T12:28:14.558Z,39.70
2019-05-23T12:30:43.297Z,39.00
2019-05-23T12:33:12.071Z,39.90
2019-05-23T12:35:40.781Z,37.90
2019-05-23T12:38:09.622Z,35.90
2019-05-23T12:40:38.308Z,37.80
2019-05-23T12:43:07.061Z,38.30
2019-05-23T12:45:35.763Z,36.00
2019-05-23T12:48:08.890Z,34.80
2019-05-23T12:50:45.195Z,34.70
2019-05-23T12:53:15.517Z,33.30
2019-05-23T12:55:44.262Z,33.90
2019-05-23T12:58:13.067Z,32.90
2019-05-23T13:00:43.414Z,30.30
2019-05-23T13:03:13.705Z,32.60
2019-05-23T13:05:43.062Z,34.70
2019-05-23T13:08:11.875Z,36.00
2019-05-23T13:10:40.886Z,35.00
2019-05-23T13:13:10.090Z,34.40
2019-05-23T13:15:39.345Z,32.20
2019-05-23T13:18:08.312Z,32.00
2019-05-23T13:20:37.818Z,32.30
2019-05-23T13:23:07.168Z,32.40
2019-05-23T13:25:36.488Z,33.60
2019-05-23T13:28:05.333Z,31.50
2019-05-23T13:30:34.413Z,29.80
2019-05-23T13:33:03.915Z,30.10
2019-05-23T13:35:33.044Z,32.20
2019-05-23T13:38:01.806Z,33.00
2019-05-23T13:40:30.840Z,33.40
2019-05-23T13:42:59.578Z,33.10
2019-05-23T13:45:28.333Z,31.70
2019-05-23T13:47:57.043Z,33.20
2019-05-23T13:50:26.969Z,35.50
2019-05-23T13:52:56.089Z,33.20
2019-05-23T13:55:25.370Z,33.10
2019-05-23T13:57:54.072Z,35.10
2019-05-23T14:00:25.151Z,35.50
2019-05-23T14:02:53.954Z,33.40
2019-05-23T14:05:22.888Z,34.70
2019-05-23T14:07:51.782Z,34.70
2019-05-23T14:10:20.514Z,33.30
2019-05-23T14:12:49.307Z,32.30
2019-05-23T14:15:19.613Z,32.40
2019-05-23T14:17:49.034Z,33.60
2019-05-23T14:20:18.151Z,33.20
2019-05-23T14:23:03.653Z,33.40
2019-05-23T14:25:32.881Z,33.40
2019-05-23T14:28:08.802Z,33.30
2019-05-23T14:30:39.198Z,34.40
2019-05-23T14:33:27.863Z,35.10
2019-05-23T14:35:58.214Z,34.90
2019-05-23T14:38:31.240Z,34.70
2019-05-23T14:40:59.081Z,34.70
2019-05-23T14:43:28.930Z,34.00
2019-05-23T14:46:04.879Z,33.50
2019-05-23T14:48:47.685Z,33.80
2019-05-23T14:51:34.047Z,32.90
2019-05-23T14:54:19.678Z,32.10
2019-05-23T14:56:48.698Z,34.70
2019-05-23T14:59:17.817Z,34.70
2019-05-23T15:01:46.584Z,34.50
2019-05-23T15:04:15.701Z,33.50
2019-05-23T15:06:44.422Z,34.70
2019-05-23T15:09:13.151Z,34.60
2019-05-23T15:11:41.952Z,34.00
2019-05-23T15:14:10.704Z,33.90
2019-05-23T15:16:39.410Z,35.40
2019-05-23T15:19:08.166Z,35.80
2019-05-23T15:21:36.915Z,34.70
2019-05-23T15:24:05.673Z,35.80
2019-05-23T15:26:34.504Z,36.20
2019-05-23T15:29:03.254Z,36.90
2019-05-23T15:31:31.970Z,35.70
2019-05-23T15:34:00.765Z,35.00
2019-05-23T15:36:29.491Z,36.10
2019-05-23T15:39:08.848Z,36.40
2019-05-23T15:41:28.057Z,36.30
2019-05-23T15:43:56.763Z,34.80
2019-05-23T15:46:25.593Z,36.10
2019-05-23T15:48:54.342Z,36.80
2019-05-23T15:51:24.604Z,38.10
2019-05-23T15:54:03.896Z,37.50
2019-05-23T15:56:50.466Z,36.10
2019-05-23T15:59:20.765Z,37.10
2019-05-23T16:02:00.039Z,35.70
2019-05-23T16:04:28.897Z,36.10
2019-05-23T16:06:57.819Z,36.00
2019-05-23T16:09:30.304Z,36.80
2019-05-23T16:11:57.643Z,38.10
2019-05-23T16:14:27.020Z,37.60
2019-05-23T16:16:57.323Z,36.80
2019-05-23T16:19:25.562Z,36.10
2019-05-23T16:21:54.299Z,38.00
2019-05-23T16:24:23.318Z,37.30
2019-05-23T16:26:52.193Z,36.80
2019-05-23T16:29:21.304Z,37.70
2019-05-23T16:31:50.114Z,37.10
2019-05-23T16:34:18.868Z,37.40
2019-05-23T16:36:48.425Z,38.50
2019-05-23T16:39:17.539Z,39.30
2019-05-23T16:41:46.260Z,41.50
2019-05-23T16:44:14.968Z,42.40
2019-05-23T16:46:43.772Z,39.90
2019-05-23T16:49:12.495Z,41.10
2019-05-23T16:51:41.241Z,39.10
2019-05-23T16:54:11.061Z,39.60
2019-05-23T16:56:50.454Z,39.60
2019-05-23T16:59:20.734Z,38.50
2019-05-23T17:02:06.560Z,40.90
2019-05-23T17:04:47.246Z,42.90
2019-05-23T17:07:34.088Z,42.20
2019-05-23T17:10:13.681Z,41.70
2019-05-23T17:12:44.155Z,41.50
2019-05-23T17:15:23.488Z,41.20
2019-05-23T17:18:09.196Z,41.30
2019-05-23T17:20:48.431Z,41.20
2019-05-23T17:23:18.799Z,41.40
2019-05-23T17:25:57.931Z,42.60
2019-05-23T17:28:28.380Z,42.70
2019-05-23T17:31:01.685Z,43.20
2019-05-23T17:33:30.882Z,44.20
2019-05-23T17:35:59.676Z,44.20
2019-05-23T17:38:28.558Z,44.20
2019-05-23T17:40:57.254Z,44.30
2019-05-23T17:43:26.020Z,44.30
2019-05-23T17:45:54.724Z,45.40
2019-05-23T17:48:23.518Z,45.10
2019-05-23T17:50:52.235Z,45.50
2019-05-23T17:53:21.179Z,45.40
2019-05-23T17:55:50.495Z,46.00
2019-05-23T17:58:20.249Z,45.20
2019-05-23T18:00:49.355Z,45.70
2019-05-23T18:03:18.477Z,46.10
2019-05-23T18:05:47.749Z,46.20
2019-05-23T18:08:17.668Z,45.90
2019-05-23T18:10:47.139Z,45.60
2019-05-23T18:13:17.074Z,46.30
2019-05-23T18:15:46.106Z,47.50
2019-05-23T18:18:15.459Z,47.80
2019-05-23T18:20:44.424Z,47.30
2019-05-23T18:23:13.147Z,47.10
2019-05-23T18:25:42.385Z,47.00
2019-05-23T18:28:12.390Z,47.30
2019-05-23T18:30:45.458Z,47.50
2019-05-23T18:33:14.804Z,47.60
2019-05-23T18:35:43.606Z,47.50
2019-05-23T18:38:12.411Z,46.90
2019-05-23T18:40:41.642Z,46.80
2019-05-23T18:43:10.592Z,46.30
2019-05-23T18:45:40.815Z,46.60
2019-05-23T18:48:10.037Z,48.00
2019-05-23T18:50:38.769Z,47.80
2019-05-23T18:53:08.774Z,48.10
2019-05-23T18:55:37.651Z,43.50
2019-05-23T18:58:06.473Z,44.00
2019-05-23T19:00:54.188Z,44.50
2019-05-23T19:03:23.707Z,47.50
2019-05-23T19:05:52.527Z,47.70
2019-05-23T19:08:21.954Z,48.40
2019-05-23T19:10:50.730Z,48.30
2019-05-23T19:13:19.460Z,48.90
2019-05-23T19:15:48.320Z,49.60
2019-05-23T19:18:17.575Z,50.10
2019-05-23T19:20:46.723Z,46.70
2019-05-23T19:23:15.961Z,48.50
2019-05-23T19:25:45.923Z,50.20
2019-05-23T19:28:14.769Z,51.20
2019-05-23T19:30:43.652Z,50.70
2019-05-23T19:33:12.904Z,51.00
2019-05-23T19:35:42.157Z,47.60
2019-05-23T19:38:11.055Z,47.80
2019-05-23T19:40:41.028Z,47.50
2019-05-23T19:43:10.715Z,47.70
2019-05-23T19:45:39.631Z,47.60
2019-05-23T19:48:08.525Z,48.10
2019-05-23T19:50:38.885Z,48.00
2019-05-23T19:53:07.801Z,47.20
2019-05-23T19:55:40.246Z,47.50
2019-05-23T19:58:09.611Z,47.80
2019-05-23T20:00:39.235Z,48.20
2019-05-23T20:03:08.607Z,48.50
2019-05-23T20:05:39.117Z,49.40
2019-05-23T20:08:08.125Z,49.70
2019-05-23T20:10:37.723Z,49.70
2019-05-23T20:13:06.728Z,49.60
2019-05-23T20:15:35.539Z,49.60
2019-05-23T20:18:04.333Z,49.10
2019-05-23T20:20:34.728Z,49.40
2019-05-23T20:23:03.469Z,49.20
2019-05-23T20:25:33.422Z,49.30
2019-05-23T20:28:02.305Z,49.50
2019-05-23T20:30:46.590Z,49.60
2019-05-23T20:33:15.775Z,49.40
2019-05-23T20:35:44.666Z,49.60
2019-05-23T20:38:13.846Z,50.10
2019-05-23T20:40:42.669Z,50.20
2019-05-23T20:43:11.686Z,50.00
2019-05-23T20:45:40.578Z,50.30
2019-05-23T20:48:09.358Z,50.10
2019-05-23T20:50:38.182Z,50.10
2019-05-23T20:53:06.997Z,50.10
2019-05-23T20:55:36.119Z,50.20
2019-05-23T20:58:05.389Z,50.40
2019-05-23T21:00:36.016Z,50.80
2019-05-23T21:03:04.449Z,51.40
2019-05-23T21:05:33.227Z,50.80
2019-05-23T21:08:01.936Z,50.60
2019-05-23T21:10:39.539Z,50.90
2019-05-23T21:13:09.771Z,50.10
2019-05-23T21:15:40.886Z,50.90
2019-05-23T21:18:09.068Z,51.30
2019-05-23T21:20:38.090Z,52.20
2019-05-23T21:23:06.838Z,52.60
2019-05-23T21:25:37.559Z,52.90
2019-05-23T21:28:06.546Z,53.90
2019-05-23T21:30:35.351Z,54.90
2019-05-23T21:33:04.778Z,54.60
2019-05-23T21:35:33.857Z,53.30
2019-05-23T21:38:02.832Z,53.60
2019-05-23T21:40:40.615Z,53.00
2019-05-23T21:43:09.494Z,52.90
2019-05-23T21:45:38.255Z,52.70
2019-05-23T21:48:07.102Z,52.10
2019-05-23T21:50:35.877Z,52.70
2019-05-23T21:53:04.680Z,52.80
2019-05-23T21:55:41.362Z,53.20
2019-05-23T21:58:11.183Z,53.20
2019-05-23T22:01:02.573Z,53.10
2019-05-23T22:03:32.927Z,53.70
2019-05-23T22:06:02.043Z,54.20
2019-05-23T22:08:31.001Z,55.60
2019-05-23T22:10:59.739Z,55.20
2019-05-23T22:13:28.463Z,55.60
2019-05-23T22:16:00.276Z,55.40
2019-05-23T22:18:30.507Z,55.70
2019-05-23T22:20:59.245Z,56.30
2019-05-23T22:23:28.009Z,56.20
2019-05-23T22:25:56.868Z,56.30
2019-05-23T22:28:25.606Z,57.20
2019-05-23T22:30:54.341Z,56.50
2019-05-23T22:33:24.643Z,56.60
2019-05-23T22:35:53.858Z,56.80
2019-05-23T22:38:22.584Z,58.30
2019-05-23T22:40:51.327Z,57.90
2019-05-23T22:43:21.328Z,58.60
2019-05-23T22:45:50.492Z,58.80
2019-05-23T22:48:19.195Z,58.60
2019-05-23T22:50:47.976Z,59.20
2019-05-23T22:53:16.699Z,59.50
2019-05-23T22:55:45.455Z,59.30
2019-05-23T22:58:14.161Z,59.50
2019-05-23T23:00:44.471Z,60.30
2019-05-23T23:03:13.216Z,59.70
2019-05-23T23:05:41.949Z,60.90
2019-05-23T23:08:10.670Z,60.50
2019-05-23T23:10:39.412Z,60.10
2019-05-23T23:13:08.142Z,61.70
2019-05-23T23:15:36.883Z,61.30
2019-05-23T23:18:06.526Z,61.10
2019-05-23T23:20:35.271Z,60.40
2019-05-23T23:23:03.974Z,59.80
2019-05-23T23:25:33.632Z,61.10
2019-05-23T23:28:02.416Z,60.30
2019-05-23T23:30:32.778Z,59.60
2019-05-23T23:33:01.528Z,59.40
2019-05-23T23:35:30.244Z,59.40
2019-05-23T23:37:58.982Z,59.70
2019-05-23T23:40:27.789Z,60.60
2019-05-23T23:42:56.524Z,60.70
2019-05-23T23:45:42.939Z,62.00
2019-05-23T23:48:29.592Z,61.10
2019-05-23T23:51:16.372Z,60.40
2019-05-23T23:54:03.316Z,60.10
2019-05-23T23:56:49.966Z,61.20
